Time;durP1;ratioP1;P1;durP2;ratioP2;P2;SDS_P1;SDS_P2;PMS_P1;PMS_P2;Temp;Humidity;BMP_temperature;BMP_pressure;BME280_temperature;BME280_humidity;BME280_pressure;Samples;Min_cycle;Max_cycle;Signal;HPM_P1;HPM_P2
2024/04/10 00:01:34;;;;;;;10.10;4.70;;;;;;;12.42;78.58;98733.13;272994;1269;23168;-87
2024/04/10 00:14:41;;;;;;;15.00;6.50;;;;;;;12.24;79.16;98729.23;273928;1271;22263;-86
2024/04/10 00:20:48;;;;;;;10.60;4.50;;;;;;;12.11;79.13;98728.11;273183;1269;23155;-85
2024/04/10 00:26:53;;;;;;;13.40;5.10;;;;;;;11.97;79.69;98732.88;270350;1269;24353;-86
2024/04/10 00:33:25;;;;;;;9.80;4.90;;;;;;;11.91;80.50;98735.38;270520;1269;23545;-85
2024/04/10 00:39:52;;;;;;;8.20;4.40;;;;;;;11.83;81.48;98735.12;270818;1269;23326;-86
2024/04/10 00:46:21;;;;;;;11.00;4.80;;;;;;;11.73;82.87;98743.65;273388;1272;22308;-85
2024/04/10 00:53:07;;;;;;;10.00;5.00;;;;;;;11.64;83.40;98772.66;273425;1269;22234;-87
2024/04/10 00:59:34;;;;;;;13.30;5.10;;;;;;;11.65;80.76;98776.44;272379;1269;23155;-85
2024/04/10 01:06:19;;;;;;;13.80;5.00;;;;;;;11.72;81.48;98776.08;273641;1269;23508;-85
2024/04/10 01:12:21;;;;;;;10.80;5.80;;;;;;;11.74;81.28;98782.44;273198;1269;22324;-86
2024/04/10 01:18:50;;;;;;;12.50;5.90;;;;;;;11.79;83.02;98790.98;271419;1269;22696;-85
2024/04/10 01:24:51;;;;;;;11.90;5.60;;;;;;;11.75;83.77;98793.88;263719;1269;10208224;-85
2024/04/10 01:31:18;;;;;;;8.20;5.10;;;;;;;11.73;84.43;98804.29;270253;1269;24298;-86
2024/04/10 01:37:22;;;;;;;10.50;4.70;;;;;;;11.72;85.54;98809.92;271291;1269;22514;-88
2024/04/10 01:43:24;;;;;;;10.10;5.10;;;;;;;11.74;86.43;98814.64;273722;1262;22354;-85
2024/04/10 01:49:30;;;;;;;7.60;4.70;;;;;;;11.72;86.86;98832.09;273682;1276;23089;-85
2024/04/10 01:55:37;;;;;;;9.00;5.00;;;;;;;11.68;86.08;98832.63;271877;1269;22484;-85
2024/04/10 02:09:20;;;;;;;13.80;6.10;;;;;;;11.71;87.41;98848.00;272107;1269;22811;-86
2024/04/10 02:15:42;;;;;;;10.80;5.90;;;;;;;11.74;87.78;98855.61;273214;1270;22376;-86
2024/04/10 02:21:44;;;;;;;15.00;6.60;;;;;;;11.76;87.68;98866.73;271704;1269;22520;-85
2024/04/10 02:27:47;;;;;;;15.40;8.30;;;;;;;11.79;87.79;98872.63;272377;1269;22396;-85
2024/04/10 02:41:26;;;;;;;19.50;7.50;;;;;;;11.96;88.83;98897.55;271863;1269;22255;-85
2024/04/10 02:47:28;;;;;;;20.00;8.50;;;;;;;12.01;89.61;98903.92;273525;1264;22249;-86
2024/04/10 02:53:30;;;;;;;21.30;8.80;;;;;;;12.02;89.89;98916.92;273232;1259;22340;-86
2024/04/10 02:59:32;;;;;;;13.20;7.80;;;;;;;12.02;90.46;98922.89;273181;1269;23184;-87
2024/04/10 03:05:34;;;;;;;20.00;9.20;;;;;;;12.01;91.01;98936.77;272955;1268;22670;-86
2024/04/10 03:11:36;;;;;;;25.20;7.70;;;;;;;11.99;90.36;98945.52;272545;1267;22452;-86
2024/04/10 03:17:38;;;;;;;18.10;7.20;;;;;;;11.93;91.00;98958.59;273252;1269;22886;-86
2024/04/10 03:23:41;;;;;;;16.30;7.30;;;;;;;11.93;91.94;98977.55;273342;1268;23542;-85
2024/04/10 03:29:43;;;;;;;17.20;6.50;;;;;;;11.94;91.46;98987.35;272843;1269;25348;-85
2024/04/10 03:35:45;;;;;;;15.10;6.60;;;;;;;11.99;92.22;98997.18;271992;1269;23087;-86
2024/04/10 03:41:47;;;;;;;21.70;7.30;;;;;;;12.07;93.31;99015.56;273267;1269;22288;-85
2024/04/10 03:47:50;;;;;;;20.00;7.50;;;;;;;12.15;93.24;99032.70;271677;1263;22583;-85
2024/04/10 03:53:59;;;;;;;24.50;8.70;;;;;;;12.27;94.58;99039.98;269872;1269;22360;-85
2024/04/10 04:00:02;;;;;;;26.30;8.20;;;;;;;12.41;95.15;99042.87;270333;1269;22698;-84
2024/04/10 04:06:05;;;;;;;23.20;7.10;;;;;;;12.52;96.47;99061.12;270491;1269;24245;-84
2024/04/10 04:12:11;;;;;;;19.60;7.40;;;;;;;12.64;97.78;99078.50;270217;1269;22541;-86
2024/04/10 04:18:15;;;;;;;12.80;6.20;;;;;;;12.88;98.80;99088.40;270708;1269;22249;-85
2024/04/10 04:24:21;;;;;;;24.70;6.90;;;;;;;13.11;99.63;99087.94;272669;1269;23489;-87
2024/04/10 04:30:23;;;;;;;24.40;6.30;;;;;;;13.29;99.55;99098.91;272622;1269;22441;-86
2024/04/10 04:36:25;;;;;;;22.00;7.30;;;;;;;13.44;99.41;99102.87;273201;1269;22270;-86
2024/04/10 04:42:30;;;;;;;19.90;6.80;;;;;;;13.58;99.65;99115.84;272934;1269;22368;-87
2024/04/10 04:48:32;;;;;;;17.20;6.10;;;;;;;13.73;100.00;99131.42;273452;1269;22278;-86
2024/04/10 04:54:37;;;;;;;25.90;7.70;;;;;;;13.94;100.00;99143.14;271815;1269;25477;-89
2024/04/10 05:00:42;;;;;;;20.30;6.60;;;;;;;14.07;99.99;99158.00;272660;1269;22267;-85
2024/04/10 05:06:46;;;;;;;23.10;6.80;;;;;;;14.15;100.00;99165.94;273190;1269;22283;-85
2024/04/10 05:12:54;;;;;;;22.40;7.20;;;;;;;14.26;100.00;99176.34;273269;1269;22352;-85
2024/04/10 05:18:56;;;;;;;22.00;6.90;;;;;;;14.34;99.97;99186.73;273262;1269;22422;-85
2024/04/10 05:24:58;;;;;;;19.60;6.90;;;;;;;14.38;100.00;99195.37;272637;1269;22450;-85
2024/04/10 05:31:03;;;;;;;20.90;9.20;;;;;;;14.44;100.00;99202.05;273163;1269;22454;-88
2024/04/10 05:37:06;;;;;;;17.60;8.00;;;;;;;14.51;100.00;99203.93;272917;1268;22326;-86
2024/04/10 05:43:08;;;;;;;23.60;7.20;;;;;;;14.61;100.00;99211.55;271301;1268;23873;-88
2024/04/10 05:49:10;;;;;;;18.70;6.90;;;;;;;14.69;100.00;99221.22;270221;1265;22529;-85
2024/04/10 05:55:13;;;;;;;17.50;6.80;;;;;;;14.74;100.00;99241.52;270719;1265;22258;-85
2024/04/10 06:01:21;;;;;;;19.50;7.00;;;;;;;14.72;100.00;99246.25;270041;1269;22538;-86
2024/04/10 06:07:24;;;;;;;11.40;4.80;;;;;;;14.73;100.00;99261.29;270150;1264;22634;-85
2024/04/10 06:13:29;;;;;;;14.80;5.30;;;;;;;14.69;100.00;99272.64;270704;1269;22519;-84
2024/04/10 06:19:36;;;;;;;17.00;6.00;;;;;;;14.61;100.00;99284.36;272844;1272;22255;-86
2024/04/10 06:26:32;;;;;;;13.00;5.30;;;;;;;14.52;100.00;99301.61;272582;1268;22380;-85
2024/04/10 06:33:00;;;;;;;12.40;5.90;;;;;;;14.43;100.00;99307.83;273350;1269;22324;-84
2024/04/10 06:39:02;;;;;;;14.50;6.30;;;;;;;14.38;100.00;99319.85;272428;1266;22329;-84
2024/04/10 06:45:30;;;;;;;11.60;6.70;;;;;;;14.31;100.00;99331.66;271565;1265;25934;-85
2024/04/10 06:52:00;;;;;;;11.90;7.90;;;;;;;14.24;100.00;99347.91;272875;1262;22259;-85
2024/04/10 06:58:28;;;;;;;15.10;9.90;;;;;;;14.18;100.00;99372.04;272758;1269;25727;-87
2024/04/10 07:04:58;;;;;;;28.90;18.00;;;;;;;14.12;100.00;99391.67;272867;1269;23016;-86
2024/04/10 07:11:20;;;;;;;30.70;18.70;;;;;;;14.01;100.00;99411.55;273270;1272;22593;-87
2024/04/10 07:24:33;;;;;;;40.00;20.20;;;;;;;13.85;100.00;99452.20;272646;1270;22248;-84
2024/04/10 07:30:51;;;;;;;38.30;20.40;;;;;;;13.77;100.00;99463.16;272957;1270;22574;-85
2024/04/10 07:36:54;;;;;;;34.10;19.50;;;;;;;13.67;100.00;99471.44;271667;1269;22535;-86
2024/04/10 07:43:01;;;;;;;31.20;15.70;;;;;;;13.55;99.74;99484.64;271039;1254;22557;-86
2024/04/10 07:49:09;;;;;;;22.20;11.00;;;;;;;13.40;98.95;99495.22;272973;1264;22326;-86
2024/04/10 07:55:11;;;;;;;24.20;12.20;;;;;;;13.28;98.83;99503.60;274082;1275;22294;-87
2024/04/10 08:01:13;;;;;;;24.00;15.10;;;;;;;13.18;98.57;99507.83;271151;1269;23873;-86
2024/04/10 08:07:15;;;;;;;22.80;14.60;;;;;;;13.08;98.35;99517.26;270758;1269;22461;-85
2024/04/10 08:13:19;;;;;;;27.20;16.20;;;;;;;13.03;98.35;99526.78;271645;1269;22539;-85
2024/04/10 08:19:24;;;;;;;26.90;16.20;;;;;;;13.02;98.30;99545.38;273530;1269;22264;-85
2024/04/10 08:25:33;;;;;;;30.50;19.50;;;;;;;13.00;98.35;99565.84;272264;1269;22421;-84
2024/04/10 08:31:41;;;;;;;35.40;19.50;;;;;;;13.02;99.09;99580.95;273833;1269;22240;-85
2024/04/10 08:37:43;;;;;;;28.10;16.70;;;;;;;12.98;98.21;99595.65;271064;1269;22543;-84
2024/04/10 08:43:50;;;;;;;22.50;14.30;;;;;;;12.89;97.51;99602.45;270629;1266;22357;-85
2024/04/10 08:50:29;;;;;;;23.50;12.70;;;;;;;12.85;97.26;99616.38;270928;1266;22630;-86
2024/04/10 08:56:48;;;;;;;22.00;11.00;;;;;;;12.79;96.20;99636.79;271376;1269;23039;-85
2024/04/10 09:03:20;;;;;;;15.80;8.40;;;;;;;12.78;95.68;99650.74;272083;1269;22411;-84
2024/04/10 09:09:44;;;;;;;19.10;8.30;;;;;;;12.78;94.98;99657.88;272913;1263;22560;-85
2024/04/10 09:16:30;;;;;;;14.00;7.40;;;;;;;12.77;94.86;99674.13;270651;1269;23742;-85
2024/04/10 09:23:18;;;;;;;14.70;7.90;;;;;;;12.79;94.52;99680.44;270778;1269;24212;-86
2024/04/10 09:29:24;;;;;;;11.80;7.00;;;;;;;12.84;93.81;99682.86;270101;1269;24283;-85
2024/04/10 09:35:27;;;;;;;14.40;6.40;;;;;;;12.90;93.24;99690.55;270263;1269;22259;-86
2024/04/10 09:41:31;;;;;;;8.70;5.70;;;;;;;12.98;92.06;99702.89;271580;1269;24741;-85
2024/04/10 09:48:32;;;;;;;;;;;;;;;;;;;;;
2024/04/10 09:54:51;;;;;;;11.40;4.90;;;;;;;13.11;91.18;99729.33;271818;1269;22216;-85
2024/04/10 10:00:56;;;;;;;8.30;4.10;;;;;;;13.17;90.85;99733.09;272159;1269;22678;-85
2024/04/10 10:07:10;;;;;;;15.00;5.30;;;;;;;13.26;90.67;99734.77;270568;1269;22435;-84
2024/04/10 10:13:41;;;;;;;9.30;5.10;;;;;;;13.35;90.15;99741.31;273379;1276;22277;-85
2024/04/10 10:19:53;;;;;;;16.20;5.40;;;;;;;13.45;88.60;99745.14;273913;1269;23439;-84
2024/04/10 10:26:35;;;;;;;16.50;6.00;;;;;;;13.57;88.68;99748.65;273703;1273;22272;-85
2024/04/10 10:33:06;;;;;;;13.30;6.80;;;;;;;13.72;89.26;99757.61;273693;1269;23437;-85
2024/04/10 10:39:26;;;;;;;11.80;6.40;;;;;;;13.76;88.09;99770.95;273803;1273;23253;-85
2024/04/10 10:46:09;;;;;;;15.00;4.50;;;;;;;13.75;87.72;99780.77;273802;1272;22948;-84
2024/04/10 10:52:47;;;;;;;9.30;3.80;;;;;;;13.65;88.18;99793.37;272245;1267;22580;-85
2024/04/10 10:59:39;;;;;;;11.60;3.80;;;;;;;13.60;88.59;99797.41;274026;1260;22222;-85
2024/04/10 11:06:11;;;;;;;12.50;3.90;;;;;;;13.60;89.01;99810.38;273636;1269;22390;-85
2024/04/10 11:12:15;;;;;;;9.40;3.80;;;;;;;13.61;88.41;99820.52;271339;1267;22688;-85
2024/04/10 11:18:46;;;;;;;14.00;4.30;;;;;;;13.59;88.20;99827.42;273631;1271;23513;-84
2024/04/10 11:25:16;;;;;;;9.20;3.80;;;;;;;13.63;88.68;99837.45;272787;1262;23215;-84
2024/04/10 11:31:36;;;;;;;8.10;4.30;;;;;;;13.83;89.25;99838.39;271068;1270;22493;-84
2024/04/10 11:37:41;;;;;;;12.40;4.30;;;;;;;13.98;88.67;99835.17;270217;1254;22644;-84
2024/04/10 11:43:45;;;;;;;13.40;4.60;;;;;;;14.09;87.97;99844.58;273630;1261;22530;-85
2024/04/10 11:50:02;;;;;;;10.40;4.50;;;;;;;14.07;87.09;99849.27;271162;1270;22670;-84
2024/04/10 11:56:12;;;;;;;10.80;4.80;;;;;;;14.12;87.57;99856.58;270386;1270;22637;-84
2024/04/10 12:02:20;;;;;;;11.60;4.60;;;;;;;14.19;87.42;99853.58;271070;1269;22613;-85
2024/04/10 12:09:15;;;;;;;11.30;4.60;;;;;;;14.25;87.77;99851.21;270554;1267;22238;-84
2024/04/10 12:15:47;;;;;;;13.30;5.20;;;;;;;14.42;87.43;99846.19;273703;1270;22246;-86
2024/04/10 12:21:58;;;;;;;7.80;4.90;;;;;;;14.48;86.41;99847.11;273840;1272;22410;-84
2024/04/10 12:42:08;;;;;;;13.20;5.70;;;;;;;14.99;85.99;99855.80;271393;1265;27701;-83
2024/04/10 12:48:12;;;;;;;9.40;5.40;;;;;;;14.94;84.82;99866.62;273390;1268;24956;-84
2024/04/10 12:54:25;;;;;;;14.50;5.80;;;;;;;14.79;85.32;99871.71;270678;1269;22558;-84
2024/04/10 13:00:27;;;;;;;11.90;6.50;;;;;;;14.54;84.86;99871.80;270631;1268;22707;-84
2024/04/10 13:06:47;;;;;;;17.20;5.90;;;;;;;14.34;84.60;99875.14;272531;1270;22254;-83
2024/04/10 13:12:49;;;;;;;12.60;4.70;;;;;;;14.17;84.83;99879.68;271381;1269;22657;-84
2024/04/10 13:19:17;;;;;;;12.90;4.90;;;;;;;13.99;84.48;99887.96;271895;1272;23070;-84
2024/04/10 13:25:18;;;;;;;8.70;4.80;;;;;;;13.83;84.95;99890.69;273581;1260;470866;-85
2024/04/10 13:39:13;;;;;;;9.40;3.80;;;;;;;13.67;85.78;99906.98;274118;1269;22267;-84
2024/04/10 13:45:16;;;;;;;12.80;4.10;;;;;;;13.57;85.98;99918.33;270332;1268;25106;-84
2024/04/10 13:51:35;;;;;;;10.50;4.50;;;;;;;13.52;85.76;99929.52;272004;1269;22244;-84
2024/04/10 13:58:20;;;;;;;10.40;4.30;;;;;;;13.49;85.54;99930.80;273284;1278;25381;-84
2024/04/10 14:04:31;;;;;;;11.30;5.20;;;;;;;13.45;86.06;99933.09;269894;1265;22532;-84
2024/04/10 14:10:35;;;;;;;14.30;5.10;;;;;;;13.45;85.31;99941.89;272069;1272;22283;-85
2024/04/10 14:16:47;;;;;;;10.30;4.90;;;;;;;13.42;85.59;99946.48;271079;1272;22563;-84
2024/04/10 14:31:34;;;;;;;8.20;4.50;;;;;;;13.36;85.53;99956.91;274038;1269;22262;-84
2024/04/10 15:34:56;;;;;;;6.20;4.00;;;;;;;13.14;86.32;100002.86;269535;1277;23838;-85
2024/04/10 15:42:54;;;;;;;9.00;4.30;;;;;;;13.06;86.88;100006.33;268406;1283;24027;-86
2024/04/10 16:06:24;;;;;;;5.50;3.10;;;;;;;12.88;86.24;100036.46;265434;1310;23310;-85
2024/04/10 16:45:48;;;;;;;8.70;4.00;;;;;;;12.53;85.56;100087.25;271589;1272;22678;-84
2024/04/10 16:53:52;;;;;;;5.50;3.80;;;;;;;12.48;85.56;100093.11;270139;1272;23380;-84
2024/04/10 17:01:53;;;;;;;8.00;5.10;;;;;;;12.43;85.98;100102.81;270963;1274;22306;-84
2024/04/10 17:10:07;;;;;;;;;;;;;;;;;;;;;
2024/04/10 17:49:37;;;;;;;16.20;6.50;;;;;;;12.08;87.69;100150.27;270015;1275;23116;-85
2024/04/10 17:57:34;;;;;;;11.10;5.80;;;;;;;12.06;88.11;100164.96;269796;1291;22323;-84
2024/04/10 18:29:26;;;;;;;;;;;;;;;;;;;;;
2024/04/10 18:36:44;;;;;;;;;;;;;;;;;;;;;
2024/04/10 18:55:05;;;;;;;13.00;6.70;;;;;;;12.15;89.20;100256.48;257285;1292;10674813;-88
2024/04/10 19:02:16;;;;;;;14.80;6.40;;;;;;;12.06;88.96;100263.92;268646;1279;23496;-85
2024/04/10 19:09:11;;;;;;;;;;;;;;;;;;;;;
2024/04/10 19:15:16;;;;;;;9.90;5.10;;;;;;;11.91;88.85;100279.61;268392;1277;22726;-86
2024/04/10 19:21:57;;;;;;;9.30;5.00;;;;;;;11.84;88.92;100286.09;268734;1277;22926;-88
2024/04/10 19:28:35;;;;;;;11.00;4.40;;;;;;;11.77;88.41;100285.36;269337;1271;22579;-92
2024/04/10 19:35:51;;;;;;;;;;;;;;;;;;;;;
2024/04/10 19:43:14;;;;;;;8.40;4.00;;;;;;;11.67;88.87;100312.51;270758;1270;22540;-85
2024/04/10 19:50:35;;;;;;;6.50;3.60;;;;;;;11.62;88.28;100325.59;270167;1270;22534;-90
2024/04/10 19:57:24;;;;;;;6.80;3.80;;;;;;;11.60;88.26;100333.21;270586;1270;22656;-89
2024/04/10 20:03:28;;;;;;;10.30;4.90;;;;;;;11.58;88.89;100343.88;269214;1270;22590;-88
2024/04/10 20:09:32;;;;;;;12.60;6.80;;;;;;;11.56;89.61;100354.87;270006;1267;22529;-86
2024/04/10 20:15:34;;;;;;;10.70;7.00;;;;;;;11.55;90.04;100365.50;270936;1266;22820;-89
2024/04/10 20:21:53;;;;;;;7.90;5.20;;;;;;;11.48;90.15;100375.02;271174;1266;22674;-92
2024/04/10 20:27:54;;;;;;;9.60;4.30;;;;;;;11.41;89.09;100376.46;273567;1266;22366;-89
2024/04/10 20:51:12;;;;;;;9.70;3.60;;;;;;;11.58;88.11;100394.69;264364;1295;549374;-91
2024/04/10 20:58:10;;;;;;;6.80;3.40;;;;;;;11.52;87.07;100410.15;268198;1278;22581;-88
2024/04/10 21:04:47;;;;;;;7.90;3.00;;;;;;;11.42;87.15;100413.94;268419;1279;22551;-88
2024/04/10 22:12:01;;;;;;;;;;;;;;;;;;;;;
2024/04/10 22:26:01;;;;;;;9.60;5.20;;;;;;;11.07;90.47;100481.29;270700;1267;22620;-90
2024/04/10 22:32:44;;;;;;;10.00;4.80;;;;;;;11.05;90.81;100486.40;270601;1267;23725;-90
2024/04/10 22:39:42;;;;;;;17.10;5.80;;;;;;;11.03;91.32;100484.30;270476;1266;22564;-92
2024/04/10 22:46:30;;;;;;;12.50;7.60;;;;;;;11.02;91.34;100487.77;271573;1267;22580;-87
2024/04/10 22:53:44;;;;;;;8.90;6.20;;;;;;;10.99;91.52;100494.86;270883;1267;22576;-89
2024/04/10 23:00:57;;;;;;;15.00;7.10;;;;;;;10.99;92.31;100499.11;271304;1267;22580;-89
2024/04/10 23:07:52;;;;;;;11.30;5.80;;;;;;;10.99;92.78;100502.86;271035;1267;23378;-91
2024/04/10 23:14:17;;;;;;;13.90;8.70;;;;;;;10.96;92.66;100499.48;270818;1267;22588;-90
2024/04/10 23:22:03;;;;;;;;;;;;;;;;;;;;;
2024/04/10 23:28:36;;;;;;;12.60;7.50;;;;;;;10.92;93.60;100504.27;271243;1267;22607;-91
2024/04/10 23:35:57;;;;;;;12.20;8.00;;;;;;;10.90;93.44;100507.66;270772;1269;23376;-88
2024/04/10 23:42:55;;;;;;;14.40;8.00;;;;;;;10.90;93.73;100507.42;270788;1251;22591;-86
2024/04/10 23:49:56;;;;;;;14.00;8.10;;;;;;;10.84;93.73;100511.98;270933;1267;25568;-87
2024/04/10 23:56:16;;;;;;;14.90;7.90;;;;;;;10.77;93.90;100510.27;270614;1268;22508;-86
